sensor_id;sensor_type;location;lat;lon;timestamp;temperature;humidity
21035;DHT22;10676;50.848;3.272;2023-03-14T00:00:37;10.30;99.90
21035;DHT22;10676;50.848;3.272;2023-03-14T00:03:03;10.40;99.90
21035;DHT22;10676;50.848;3.272;2023-03-14T00:05:28;10.50;99.90
21035;DHT22;10676;50.848;3.272;2023-03-14T00:07:54;10.60;99.90
21035;DHT22;10676;50.848;3.272;2023-03-14T00:10:20;10.70;99.90
21035;DHT22;10676;50.848;3.272;2023-03-14T00:12:46;10.70;99.90
21035;DHT22;10676;50.848;3.272;2023-03-14T00:15:12;10.70;99.90
21035;DHT22;10676;50.848;3.272;2023-03-14T00:17:38;10.70;99.90
21035;DHT22;10676;50.848;3.272;2023-03-14T00:20:06;10.70;99.90
21035;DHT22;10676;50.848;3.272;2023-03-14T00:22:37;10.60;99.90
21035;DHT22;10676;50.848;3.272;2023-03-14T00:25:03;10.60;99.90
21035;DHT22;10676;50.848;3.272;2023-03-14T00:27:29;10.50;99.90
21035;DHT22;10676;50.848;3.272;2023-03-14T00:29:55;10.50;99.90
21035;DHT22;10676;50.848;3.272;2023-03-14T00:32:21;10.50;99.90
21035;DHT22;10676;50.848;3.272;2023-03-14T00:34:46;10.50;99.90
21035;DHT22;10676;50.848;3.272;2023-03-14T00:37:12;10.50;99.90
21035;DHT22;10676;50.848;3.272;2023-03-14T00:39:38;10.50;99.90
21035;DHT22;10676;50.848;3.272;2023-03-14T00:42:03;10.60;99.90
21035;DHT22;10676;50.848;3.272;2023-03-14T00:44:29;10.60;99.90
21035;DHT22;10676;50.848;3.272;2023-03-14T00:46:55;10.70;99.90
21035;DHT22;10676;50.848;3.272;2023-03-14T00:49:20;10.70;99.90
21035;DHT22;10676;50.848;3.272;2023-03-14T00:51:46;10.70;99.90
21035;DHT22;10676;50.848;3.272;2023-03-14T00:54:12;10.70;99.90
21035;DHT22;10676;50.848;3.272;2023-03-14T00:56:37;10.70;99.90
21035;DHT22;10676;50.848;3.272;2023-03-14T00:59:03;10.70;99.90
21035;DHT22;10676;50.848;3.272;2023-03-14T01:01:29;10.80;99.90
21035;DHT22;10676;50.848;3.272;2023-03-14T01:03:55;10.80;99.90
21035;DHT22;10676;50.848;3.272;2023-03-14T01:06:26;10.90;99.90
21035;DHT22;10676;50.848;3.272;2023-03-14T01:08:53;10.90;99.90
21035;DHT22;10676;50.848;3.272;2023-03-14T01:11:22;10.90;99.90
21035;DHT22;10676;50.848;3.272;2023-03-14T01:13:48;10.90;99.90
21035;DHT22;10676;50.848;3.272;2023-03-14T01:16:15;10.90;99.90
21035;DHT22;10676;50.848;3.272;2023-03-14T01:18:42;10.80;99.90
21035;DHT22;10676;50.848;3.272;2023-03-14T01:21:17;10.80;99.90
21035;DHT22;10676;50.848;3.272;2023-03-14T01:23:44;10.70;99.90
21035;DHT22;10676;50.848;3.272;2023-03-14T01:26:16;10.70;99.90
21035;DHT22;10676;50.848;3.272;2023-03-14T01:28:44;10.60;99.90
21035;DHT22;10676;50.848;3.272;2023-03-14T01:31:10;10.70;99.90
21035;DHT22;10676;50.848;3.272;2023-03-14T01:33:37;10.60;99.90
21035;DHT22;10676;50.848;3.272;2023-03-14T01:36:04;10.70;99.90
21035;DHT22;10676;50.848;3.272;2023-03-14T01:38:31;10.70;99.90
21035;DHT22;10676;50.848;3.272;2023-03-14T01:40:57;10.80;99.90
21035;DHT22;10676;50.848;3.272;2023-03-14T01:43:23;10.80;99.90
21035;DHT22;10676;50.848;3.272;2023-03-14T01:48:37;11.00;99.90
21035;DHT22;10676;50.848;3.272;2023-03-14T01:51:06;11.00;99.90
21035;DHT22;10676;50.848;3.272;2023-03-14T01:53:35;11.10;99.90
21035;DHT22;10676;50.848;3.272;2023-03-14T01:56:01;11.10;99.90
21035;DHT22;10676;50.848;3.272;2023-03-14T01:58:30;11.00;99.90
21035;DHT22;10676;50.848;3.272;2023-03-14T02:00:58;11.00;99.90
21035;DHT22;10676;50.848;3.272;2023-03-14T02:03:25;10.90;99.90
21035;DHT22;10676;50.848;3.272;2023-03-14T02:05:54;10.80;99.90
21035;DHT22;10676;50.848;3.272;2023-03-14T02:08:22;10.80;99.90
21035;DHT22;10676;50.848;3.272;2023-03-14T02:10:50;10.80;99.90
21035;DHT22;10676;50.848;3.272;2023-03-14T02:13:20;10.80;99.90
21035;DHT22;10676;50.848;3.272;2023-03-14T02:15:47;10.80;99.90
21035;DHT22;10676;50.848;3.272;2023-03-14T02:18:13;10.80;99.90
21035;DHT22;10676;50.848;3.272;2023-03-14T02:29:25;10.80;99.90
21035;DHT22;10676;50.848;3.272;2023-03-14T02:31:51;10.80;99.90
21035;DHT22;10676;50.848;3.272;2023-03-14T02:34:16;10.80;99.90
21035;DHT22;10676;50.848;3.272;2023-03-14T02:36:42;10.90;99.90
21035;DHT22;10676;50.848;3.272;2023-03-14T02:39:15;10.90;99.90
21035;DHT22;10676;50.848;3.272;2023-03-14T02:41:44;11.00;99.90
21035;DHT22;10676;50.848;3.272;2023-03-14T02:44:11;11.00;99.90
21035;DHT22;10676;50.848;3.272;2023-03-14T02:46:37;11.00;99.90
21035;DHT22;10676;50.848;3.272;2023-03-14T02:49:06;11.00;99.90
21035;DHT22;10676;50.848;3.272;2023-03-14T02:51:33;11.00;99.90
21035;DHT22;10676;50.848;3.272;2023-03-14T02:53:59;11.00;99.90
21035;DHT22;10676;50.848;3.272;2023-03-14T02:56:25;11.00;99.90
21035;DHT22;10676;50.848;3.272;2023-03-14T02:58:50;11.00;99.90
21035;DHT22;10676;50.848;3.272;2023-03-14T03:01:16;10.90;99.90
21035;DHT22;10676;50.848;3.272;2023-03-14T03:03:42;10.90;99.90
21035;DHT22;10676;50.848;3.272;2023-03-14T03:06:08;10.90;99.90
21035;DHT22;10676;50.848;3.272;2023-03-14T03:08:33;10.80;99.90
21035;DHT22;10676;50.848;3.272;2023-03-14T03:10:59;10.80;99.90
21035;DHT22;10676;50.848;3.272;2023-03-14T03:13:25;10.80;99.90
21035;DHT22;10676;50.848;3.272;2023-03-14T03:15:52;10.80;99.90
21035;DHT22;10676;50.848;3.272;2023-03-14T03:18:17;10.80;99.90
21035;DHT22;10676;50.848;3.272;2023-03-14T03:20:43;10.80;99.90
21035;DHT22;10676;50.848;3.272;2023-03-14T03:23:09;10.80;99.90
21035;DHT22;10676;50.848;3.272;2023-03-14T03:25:34;10.90;99.90
21035;DHT22;10676;50.848;3.272;2023-03-14T03:28:01;11.00;99.90
21035;DHT22;10676;50.848;3.272;2023-03-14T03:30:34;11.10;99.90
21035;DHT22;10676;50.848;3.272;2023-03-14T03:33:02;11.00;99.90
21035;DHT22;10676;50.848;3.272;2023-03-14T03:35:27;11.10;99.90
21035;DHT22;10676;50.848;3.272;2023-03-14T03:37:53;11.00;99.90
21035;DHT22;10676;50.848;3.272;2023-03-14T03:40:19;11.00;99.90
21035;DHT22;10676;50.848;3.272;2023-03-14T03:42:44;10.90;99.90
21035;DHT22;10676;50.848;3.272;2023-03-14T03:45:10;10.90;99.90
21035;DHT22;10676;50.848;3.272;2023-03-14T03:47:36;10.90;99.90
21035;DHT22;10676;50.848;3.272;2023-03-14T03:50:01;10.90;99.90
21035;DHT22;10676;50.848;3.272;2023-03-14T03:52:27;10.90;99.90
21035;DHT22;10676;50.848;3.272;2023-03-14T03:54:53;10.80;99.90
21035;DHT22;10676;50.848;3.272;2023-03-14T03:57:19;10.80;99.90
21035;DHT22;10676;50.848;3.272;2023-03-14T03:59:45;10.80;99.90
21035;DHT22;10676;50.848;3.272;2023-03-14T04:02:10;10.80;99.90
21035;DHT22;10676;50.848;3.272;2023-03-14T04:04:36;10.80;99.90
21035;DHT22;10676;50.848;3.272;2023-03-14T04:07:03;10.80;99.90
21035;DHT22;10676;50.848;3.272;2023-03-14T04:09:30;10.80;99.90
21035;DHT22;10676;50.848;3.272;2023-03-14T04:11:55;10.80;99.90
21035;DHT22;10676;50.848;3.272;2023-03-14T04:14:23;10.70;99.90
21035;DHT22;10676;50.848;3.272;2023-03-14T04:16:48;10.70;99.90
21035;DHT22;10676;50.848;3.272;2023-03-14T04:19:14;10.70;99.90
21035;DHT22;10676;50.848;3.272;2023-03-14T04:21:40;10.70;99.90
21035;DHT22;10676;50.848;3.272;2023-03-14T04:24:10;10.70;99.90
21035;DHT22;10676;50.848;3.272;2023-03-14T04:26:36;10.70;99.90
21035;DHT22;10676;50.848;3.272;2023-03-14T04:29:01;10.70;99.90
21035;DHT22;10676;50.848;3.272;2023-03-14T04:31:27;10.70;99.90
21035;DHT22;10676;50.848;3.272;2023-03-14T04:33:53;10.70;99.90
21035;DHT22;10676;50.848;3.272;2023-03-14T04:36:18;10.70;99.90
21035;DHT22;10676;50.848;3.272;2023-03-14T04:38:44;10.80;99.90
21035;DHT22;10676;50.848;3.272;2023-03-14T04:41:10;10.80;99.90
21035;DHT22;10676;50.848;3.272;2023-03-14T04:43:35;10.90;99.90
21035;DHT22;10676;50.848;3.272;2023-03-14T04:46:01;11.00;99.90
21035;DHT22;10676;50.848;3.272;2023-03-14T04:48:28;11.00;99.90
21035;DHT22;10676;50.848;3.272;2023-03-14T04:50:54;11.10;99.90
21035;DHT22;10676;50.848;3.272;2023-03-14T04:53:20;11.10;99.90
21035;DHT22;10676;50.848;3.272;2023-03-14T04:55:50;11.10;99.90
21035;DHT22;10676;50.848;3.272;2023-03-14T04:58:16;11.10;99.90
21035;DHT22;10676;50.848;3.272;2023-03-14T05:00:42;11.10;99.90
21035;DHT22;10676;50.848;3.272;2023-03-14T05:03:08;11.10;99.90
21035;DHT22;10676;50.848;3.272;2023-03-14T05:05:33;11.00;99.90
21035;DHT22;10676;50.848;3.272;2023-03-14T05:07:59;10.90;99.90
21035;DHT22;10676;50.848;3.272;2023-03-14T05:10:24;10.90;99.90
21035;DHT22;10676;50.848;3.272;2023-03-14T05:12:51;10.80;99.90
21035;DHT22;10676;50.848;3.272;2023-03-14T05:15:16;10.80;99.90
21035;DHT22;10676;50.848;3.272;2023-03-14T05:17:42;10.80;99.90
21035;DHT22;10676;50.848;3.272;2023-03-14T05:20:08;10.70;99.90
21035;DHT22;10676;50.848;3.272;2023-03-14T05:22:38;10.70;99.90
21035;DHT22;10676;50.848;3.272;2023-03-14T05:25:04;10.70;99.90
21035;DHT22;10676;50.848;3.272;2023-03-14T05:27:30;10.70;99.90
21035;DHT22;10676;50.848;3.272;2023-03-14T05:29:56;10.70;99.90
21035;DHT22;10676;50.848;3.272;2023-03-14T05:32:22;10.50;99.90
21035;DHT22;10676;50.848;3.272;2023-03-14T05:34:47;10.20;99.90
21035;DHT22;10676;50.848;3.272;2023-03-14T05:37:13;9.90;99.90
21035;DHT22;10676;50.848;3.272;2023-03-14T05:39:38;9.50;99.90
21035;DHT22;10676;50.848;3.272;2023-03-14T05:42:04;9.20;99.90
21035;DHT22;10676;50.848;3.272;2023-03-14T05:44:30;9.00;99.90
21035;DHT22;10676;50.848;3.272;2023-03-14T05:46:56;8.90;99.90
21035;DHT22;10676;50.848;3.272;2023-03-14T05:49:21;8.70;99.90
21035;DHT22;10676;50.848;3.272;2023-03-14T05:51:47;8.60;99.90
21035;DHT22;10676;50.848;3.272;2023-03-14T05:54:13;8.50;99.90
21035;DHT22;10676;50.848;3.272;2023-03-14T05:56:38;8.50;99.90
21035;DHT22;10676;50.848;3.272;2023-03-14T05:59:04;8.40;99.90
21035;DHT22;10676;50.848;3.272;2023-03-14T06:01:30;8.30;99.90
21035;DHT22;10676;50.848;3.272;2023-03-14T06:03:56;8.30;99.90
21035;DHT22;10676;50.848;3.272;2023-03-14T06:06:21;8.30;99.90
21035;DHT22;10676;50.848;3.272;2023-03-14T06:08:47;8.20;99.90
21035;DHT22;10676;50.848;3.272;2023-03-14T06:11:13;8.20;99.90
21035;DHT22;10676;50.848;3.272;2023-03-14T06:13:38;8.20;99.90
21035;DHT22;10676;50.848;3.272;2023-03-14T06:16:05;8.10;99.90
21035;DHT22;10676;50.848;3.272;2023-03-14T06:18:30;8.10;99.90
21035;DHT22;10676;50.848;3.272;2023-03-14T06:20:57;8.00;99.90
21035;DHT22;10676;50.848;3.272;2023-03-14T06:23:23;8.00;99.90
21035;DHT22;10676;50.848;3.272;2023-03-14T06:25:50;8.00;99.90
21035;DHT22;10676;50.848;3.272;2023-03-14T06:28:15;8.00;99.90
21035;DHT22;10676;50.848;3.272;2023-03-14T06:30:41;8.00;99.90
21035;DHT22;10676;50.848;3.272;2023-03-14T06:33:07;8.00;99.90
21035;DHT22;10676;50.848;3.272;2023-03-14T06:35:33;8.00;99.90
21035;DHT22;10676;50.848;3.272;2023-03-14T06:37:58;8.00;99.90
21035;DHT22;10676;50.848;3.272;2023-03-14T06:40:24;8.00;99.90
21035;DHT22;10676;50.848;3.272;2023-03-14T06:42:50;8.00;99.90
21035;DHT22;10676;50.848;3.272;2023-03-14T06:45:15;8.00;99.90
21035;DHT22;10676;50.848;3.272;2023-03-14T06:47:41;7.90;99.90
21035;DHT22;10676;50.848;3.272;2023-03-14T06:50:07;7.80;99.90
21035;DHT22;10676;50.848;3.272;2023-03-14T06:52:33;7.70;99.90
21035;DHT22;10676;50.848;3.272;2023-03-14T06:54:59;7.60;99.90
21035;DHT22;10676;50.848;3.272;2023-03-14T06:57:25;7.50;99.90
21035;DHT22;10676;50.848;3.272;2023-03-14T06:59:50;7.40;99.90
21035;DHT22;10676;50.848;3.272;2023-03-14T07:02:16;7.30;99.90
21035;DHT22;10676;50.848;3.272;2023-03-14T07:04:42;7.20;99.90
21035;DHT22;10676;50.848;3.272;2023-03-14T07:07:08;7.20;99.90
21035;DHT22;10676;50.848;3.272;2023-03-14T07:09:34;7.10;99.90
21035;DHT22;10676;50.848;3.272;2023-03-14T07:12:00;7.10;99.90
21035;DHT22;10676;50.848;3.272;2023-03-14T07:14:26;7.00;99.90
21035;DHT22;10676;50.848;3.272;2023-03-14T07:16:51;7.10;99.90
21035;DHT22;10676;50.848;3.272;2023-03-14T07:19:17;7.00;99.90
21035;DHT22;10676;50.848;3.272;2023-03-14T07:21:43;7.00;99.90
21035;DHT22;10676;50.848;3.272;2023-03-14T07:24:08;7.00;99.90
21035;DHT22;10676;50.848;3.272;2023-03-14T07:26:34;7.00;99.90
21035;DHT22;10676;50.848;3.272;2023-03-14T07:29:00;7.00;99.90
21035;DHT22;10676;50.848;3.272;2023-03-14T07:31:28;7.00;99.90
21035;DHT22;10676;50.848;3.272;2023-03-14T07:33:55;7.00;99.90
21035;DHT22;10676;50.848;3.272;2023-03-14T07:36:20;7.00;99.90
21035;DHT22;10676;50.848;3.272;2023-03-14T07:38:47;7.10;99.90
21035;DHT22;10676;50.848;3.272;2023-03-14T07:41:13;7.20;99.90
21035;DHT22;10676;50.848;3.272;2023-03-14T07:43:39;7.30;99.90
21035;DHT22;10676;50.848;3.272;2023-03-14T07:46:06;7.30;99.90
21035;DHT22;10676;50.848;3.272;2023-03-14T07:48:32;7.30;99.90
21035;DHT22;10676;50.848;3.272;2023-03-14T07:50:57;7.20;99.90
21035;DHT22;10676;50.848;3.272;2023-03-14T07:53:24;7.30;99.90
21035;DHT22;10676;50.848;3.272;2023-03-14T07:55:54;7.20;99.90
21035;DHT22;10676;50.848;3.272;2023-03-14T07:58:20;7.30;99.90
21035;DHT22;10676;50.848;3.272;2023-03-14T08:00:48;7.30;99.90
21035;DHT22;10676;50.848;3.272;2023-03-14T08:03:13;7.40;99.90
21035;DHT22;10676;50.848;3.272;2023-03-14T08:05:39;7.40;99.90
21035;DHT22;10676;50.848;3.272;2023-03-14T08:08:05;7.40;99.90
21035;DHT22;10676;50.848;3.272;2023-03-14T08:10:31;7.40;99.90
21035;DHT22;10676;50.848;3.272;2023-03-14T08:12:58;7.40;99.90
21035;DHT22;10676;50.848;3.272;2023-03-14T08:15:25;7.40;99.90
21035;DHT22;10676;50.848;3.272;2023-03-14T08:17:51;7.40;99.90
21035;DHT22;10676;50.848;3.272;2023-03-14T08:20:18;7.40;99.90
21035;DHT22;10676;50.848;3.272;2023-03-14T08:22:44;7.40;99.90
21035;DHT22;10676;50.848;3.272;2023-03-14T08:25:10;7.50;99.90
21035;DHT22;10676;50.848;3.272;2023-03-14T08:27:36;7.50;99.90
21035;DHT22;10676;50.848;3.272;2023-03-14T08:30:05;7.40;99.90
21035;DHT22;10676;50.848;3.272;2023-03-14T08:32:31;7.40;99.90
21035;DHT22;10676;50.848;3.272;2023-03-14T08:34:57;7.40;99.90
21035;DHT22;10676;50.848;3.272;2023-03-14T08:37:23;7.40;99.90
21035;DHT22;10676;50.848;3.272;2023-03-14T08:39:50;7.50;99.90
21035;DHT22;10676;50.848;3.272;2023-03-14T08:42:16;7.60;99.90
21035;DHT22;10676;50.848;3.272;2023-03-14T08:44:42;7.90;99.90
21035;DHT22;10676;50.848;3.272;2023-03-14T08:47:08;8.20;99.90
21035;DHT22;10676;50.848;3.272;2023-03-14T08:49:33;8.30;99.90
21035;DHT22;10676;50.848;3.272;2023-03-14T08:52:01;8.60;99.90
21035;DHT22;10676;50.848;3.272;2023-03-14T08:54:27;9.00;99.90
21035;DHT22;10676;50.848;3.272;2023-03-14T08:56:53;9.30;99.90
21035;DHT22;10676;50.848;3.272;2023-03-14T08:59:19;9.40;99.90
21035;DHT22;10676;50.848;3.272;2023-03-14T09:01:44;9.40;99.90
21035;DHT22;10676;50.848;3.272;2023-03-14T09:04:10;9.80;99.90
21035;DHT22;10676;50.848;3.272;2023-03-14T09:06:35;10.40;99.90
21035;DHT22;10676;50.848;3.272;2023-03-14T09:09:01;11.10;99.90
21035;DHT22;10676;50.848;3.272;2023-03-14T09:11:27;11.60;99.90
21035;DHT22;10676;50.848;3.272;2023-03-14T09:13:53;12.20;99.90
21035;DHT22;10676;50.848;3.272;2023-03-14T09:16:19;13.00;99.90
21035;DHT22;10676;50.848;3.272;2023-03-14T09:18:44;13.60;99.90
21035;DHT22;10676;50.848;3.272;2023-03-14T09:21:10;14.00;99.90
21035;DHT22;10676;50.848;3.272;2023-03-14T09:23:36;14.10;99.90
21035;DHT22;10676;50.848;3.272;2023-03-14T09:26:01;13.90;99.90
21035;DHT22;10676;50.848;3.272;2023-03-14T09:28:27;14.10;99.90
21035;DHT22;10676;50.848;3.272;2023-03-14T09:30:53;14.60;99.90
21035;DHT22;10676;50.848;3.272;2023-03-14T09:33:20;14.50;99.90
21035;DHT22;10676;50.848;3.272;2023-03-14T09:35:46;13.80;99.90
21035;DHT22;10676;50.848;3.272;2023-03-14T09:38:11;13.00;99.90
21035;DHT22;10676;50.848;3.272;2023-03-14T09:40:40;12.40;99.90
21035;DHT22;10676;50.848;3.272;2023-03-14T09:43:08;11.90;99.90
21035;DHT22;10676;50.848;3.272;2023-03-14T09:45:37;11.60;99.90
21035;DHT22;10676;50.848;3.272;2023-03-14T09:48:05;11.20;99.90
21035;DHT22;10676;50.848;3.272;2023-03-14T09:50:44;10.90;99.90
21035;DHT22;10676;50.848;3.272;2023-03-14T09:53:14;10.60;99.90
21035;DHT22;10676;50.848;3.272;2023-03-14T09:55:43;10.40;99.90
21035;DHT22;10676;50.848;3.272;2023-03-14T09:58:13;10.20;99.90
21035;DHT22;10676;50.848;3.272;2023-03-14T10:00:39;10.00;99.90
21035;DHT22;10676;50.848;3.272;2023-03-14T10:05:37;9.50;99.90
21035;DHT22;10676;50.848;3.272;2023-03-14T10:08:03;9.30;99.90
21035;DHT22;10676;50.848;3.272;2023-03-14T10:10:29;9.20;99.90
21035;DHT22;10676;50.848;3.272;2023-03-14T10:15:35;9.00;99.90
21035;DHT22;10676;50.848;3.272;2023-03-14T10:18:02;8.90;99.90
21035;DHT22;10676;50.848;3.272;2023-03-14T10:23:23;8.80;99.90
21035;DHT22;10676;50.848;3.272;2023-03-14T10:26:13;8.70;99.90
21035;DHT22;10676;50.848;3.272;2023-03-14T10:31:09;8.30;99.90
21035;DHT22;10676;50.848;3.272;2023-03-14T10:33:36;8.10;99.90
21035;DHT22;10676;50.848;3.272;2023-03-14T10:36:23;8.00;99.90
21035;DHT22;10676;50.848;3.272;2023-03-14T10:38:57;8.00;99.90
21035;DHT22;10676;50.848;3.272;2023-03-14T10:41:25;8.10;99.90
21035;DHT22;10676;50.848;3.272;2023-03-14T10:43:57;8.10;99.90
21035;DHT22;10676;50.848;3.272;2023-03-14T10:46:25;8.00;99.90
21035;DHT22;10676;50.848;3.272;2023-03-14T10:48:53;7.90;99.90
21035;DHT22;10676;50.848;3.272;2023-03-14T10:51:25;7.80;99.90
21035;DHT22;10676;50.848;3.272;2023-03-14T10:54:02;7.70;99.90
21035;DHT22;10676;50.848;3.272;2023-03-14T10:56:35;7.70;99.90
21035;DHT22;10676;50.848;3.272;2023-03-14T10:59:03;7.60;99.90
21035;DHT22;10676;50.848;3.272;2023-03-14T11:01:55;7.50;99.90
21035;DHT22;10676;50.848;3.272;2023-03-14T11:07:36;7.40;99.90
21035;DHT22;10676;50.848;3.272;2023-03-14T11:10:26;7.30;99.90
21035;DHT22;10676;50.848;3.272;2023-03-14T11:13:30;7.30;99.90
21035;DHT22;10676;50.848;3.272;2023-03-14T11:19:10;7.30;99.90
21035;DHT22;10676;50.848;3.272;2023-03-14T11:22:00;7.30;99.90
21035;DHT22;10676;50.848;3.272;2023-03-14T11:27:43;7.30;99.90
21035;DHT22;10676;50.848;3.272;2023-03-14T11:30:21;7.20;99.90
21035;DHT22;10676;50.848;3.272;2023-03-14T11:33:16;7.10;99.90
21035;DHT22;10676;50.848;3.272;2023-03-14T11:38:40;6.70;99.90
21035;DHT22;10676;50.848;3.272;2023-03-14T11:41:29;6.40;99.90
21035;DHT22;10676;50.848;3.272;2023-03-14T11:43:57;6.20;99.90
21035;DHT22;10676;50.848;3.272;2023-03-14T11:46:31;6.10;99.90
21035;DHT22;10676;50.848;3.272;2023-03-14T11:49:30;6.00;99.90
21035;DHT22;10676;50.848;3.272;2023-03-14T11:52:00;6.00;99.90
21035;DHT22;10676;50.848;3.272;2023-03-14T11:54:39;5.90;99.90
21035;DHT22;10676;50.848;3.272;2023-03-14T11:57:14;5.80;99.90
21035;DHT22;10676;50.848;3.272;2023-03-14T12:02:35;5.70;99.90
21035;DHT22;10676;50.848;3.272;2023-03-14T12:10:43;5.90;99.90
21035;DHT22;10676;50.848;3.272;2023-03-14T12:13:12;6.10;99.90
21035;DHT22;10676;50.848;3.272;2023-03-14T12:15:56;6.20;99.90
21035;DHT22;10676;50.848;3.272;2023-03-14T12:18:38;6.30;99.90
21035;DHT22;10676;50.848;3.272;2023-03-14T12:21:07;6.30;99.90
21035;DHT22;10676;50.848;3.272;2023-03-14T12:26:22;6.50;99.90
21035;DHT22;10676;50.848;3.272;2023-03-14T12:28:51;6.60;99.90
21035;DHT22;10676;50.848;3.272;2023-03-14T12:34:27;6.50;99.90
21035;DHT22;10676;50.848;3.272;2023-03-14T12:37:14;6.50;99.90
21035;DHT22;10676;50.848;3.272;2023-03-14T12:43:00;6.40;99.90
21035;DHT22;10676;50.848;3.272;2023-03-14T12:45:36;6.40;99.90
21035;DHT22;10676;50.848;3.272;2023-03-14T12:50:44;6.40;99.90
21035;DHT22;10676;50.848;3.272;2023-03-14T12:53:26;6.50;99.90
21035;DHT22;10676;50.848;3.272;2023-03-14T13:01:19;6.90;99.90
21035;DHT22;10676;50.848;3.272;2023-03-14T13:03:58;7.00;99.90
21035;DHT22;10676;50.848;3.272;2023-03-14T13:06:52;7.10;99.90
21035;DHT22;10676;50.848;3.272;2023-03-14T13:12:03;7.20;99.90
21035;DHT22;10676;50.848;3.272;2023-03-14T13:14:33;7.10;99.90
21035;DHT22;10676;50.848;3.272;2023-03-14T13:17:02;7.00;99.90
21035;DHT22;10676;50.848;3.272;2023-03-14T13:19:30;6.80;99.90
21035;DHT22;10676;50.848;3.272;2023-03-14T13:22:04;6.60;99.90
21035;DHT22;10676;50.848;3.272;2023-03-14T13:24:33;6.50;99.90
21035;DHT22;10676;50.848;3.272;2023-03-14T13:26:59;6.50;99.90
21035;DHT22;10676;50.848;3.272;2023-03-14T13:29:27;6.60;99.90
21035;DHT22;10676;50.848;3.272;2023-03-14T13:31:59;6.80;99.90
21035;DHT22;10676;50.848;3.272;2023-03-14T13:34:26;6.80;99.90
21035;DHT22;10676;50.848;3.272;2023-03-14T13:36:53;6.90;99.90
21035;DHT22;10676;50.848;3.272;2023-03-14T13:39:21;7.00;99.90
21035;DHT22;10676;50.848;3.272;2023-03-14T13:41:50;7.00;99.90
21035;DHT22;10676;50.848;3.272;2023-03-14T13:44:19;7.00;99.90
21035;DHT22;10676;50.848;3.272;2023-03-14T13:46:48;7.00;99.90
21035;DHT22;10676;50.848;3.272;2023-03-14T13:49:22;7.10;99.90
21035;DHT22;10676;50.848;3.272;2023-03-14T13:51:48;7.10;99.90
21035;DHT22;10676;50.848;3.272;2023-03-14T13:54:21;7.10;99.90
21035;DHT22;10676;50.848;3.272;2023-03-14T13:56:48;7.10;99.90
21035;DHT22;10676;50.848;3.272;2023-03-14T13:59:26;7.00;99.90
21035;DHT22;10676;50.848;3.272;2023-03-14T14:01:53;6.90;99.90
21035;DHT22;10676;50.848;3.272;2023-03-14T14:04:21;6.70;99.90
21035;DHT22;10676;50.848;3.272;2023-03-14T14:06:59;6.50;99.90
21035;DHT22;10676;50.848;3.272;2023-03-14T14:09:26;6.30;99.90
21035;DHT22;10676;50.848;3.272;2023-03-14T14:17:00;5.80;99.90
21035;DHT22;10676;50.848;3.272;2023-03-14T14:19:28;5.70;99.90
21035;DHT22;10676;50.848;3.272;2023-03-14T14:21:55;5.60;99.90
21035;DHT22;10676;50.848;3.272;2023-03-14T14:24:24;5.50;99.90
21035;DHT22;10676;50.848;3.272;2023-03-14T14:26:53;5.50;99.90
21035;DHT22;10676;50.848;3.272;2023-03-14T14:29:31;5.50;99.90
21035;DHT22;10676;50.848;3.272;2023-03-14T14:32:14;5.60;99.90
21035;DHT22;10676;50.848;3.272;2023-03-14T14:34:45;5.70;99.90
21035;DHT22;10676;50.848;3.272;2023-03-14T14:39:52;6.00;99.90
21035;DHT22;10676;50.848;3.272;2023-03-14T14:42:25;6.10;99.90
21035;DHT22;10676;50.848;3.272;2023-03-14T14:44:51;6.30;99.90
21035;DHT22;10676;50.848;3.272;2023-03-14T14:47:23;6.40;99.90
21035;DHT22;10676;50.848;3.272;2023-03-14T14:49:50;6.60;99.90
21035;DHT22;10676;50.848;3.272;2023-03-14T14:52:22;6.70;99.90
21035;DHT22;10676;50.848;3.272;2023-03-14T14:54:59;6.90;99.90
21035;DHT22;10676;50.848;3.272;2023-03-14T14:57:32;7.00;99.90
21035;DHT22;10676;50.848;3.272;2023-03-14T15:00:05;7.10;99.90
21035;DHT22;10676;50.848;3.272;2023-03-14T15:02:38;7.20;99.90
21035;DHT22;10676;50.848;3.272;2023-03-14T15:05:17;7.30;99.90
21035;DHT22;10676;50.848;3.272;2023-03-14T15:07:43;7.40;99.90
21035;DHT22;10676;50.848;3.272;2023-03-14T15:10:14;7.40;99.90
21035;DHT22;10676;50.848;3.272;2023-03-14T15:12:40;7.50;99.90
21035;DHT22;10676;50.848;3.272;2023-03-14T15:15:07;7.70;99.90
21035;DHT22;10676;50.848;3.272;2023-03-14T15:17:33;7.70;99.90
21035;DHT22;10676;50.848;3.272;2023-03-14T15:19:58;7.80;99.90
21035;DHT22;10676;50.848;3.272;2023-03-14T15:22:24;7.90;99.90
21035;DHT22;10676;50.848;3.272;2023-03-14T15:24:50;8.00;99.90
21035;DHT22;10676;50.848;3.272;2023-03-14T15:27:17;8.10;99.90
21035;DHT22;10676;50.848;3.272;2023-03-14T15:29:43;8.10;99.90
21035;DHT22;10676;50.848;3.272;2023-03-14T15:32:15;8.20;99.90
21035;DHT22;10676;50.848;3.272;2023-03-14T15:34:42;8.20;99.90
21035;DHT22;10676;50.848;3.272;2023-03-14T15:37:16;8.30;99.90
21035;DHT22;10676;50.848;3.272;2023-03-14T15:39:45;8.30;99.90
21035;DHT22;10676;50.848;3.272;2023-03-14T15:42:11;8.40;99.90
21035;DHT22;10676;50.848;3.272;2023-03-14T15:44:37;8.40;99.90
21035;DHT22;10676;50.848;3.272;2023-03-14T15:47:04;8.40;99.90
21035;DHT22;10676;50.848;3.272;2023-03-14T15:49:31;8.50;99.90
21035;DHT22;10676;50.848;3.272;2023-03-14T15:51:57;8.60;99.90
21035;DHT22;10676;50.848;3.272;2023-03-14T15:54:24;8.60;99.90
21035;DHT22;10676;50.848;3.272;2023-03-14T15:56:56;8.70;99.90
21035;DHT22;10676;50.848;3.272;2023-03-14T15:59:22;8.70;99.90
21035;DHT22;10676;50.848;3.272;2023-03-14T16:01:48;8.80;99.90
21035;DHT22;10676;50.848;3.272;2023-03-14T16:04:14;8.80;99.90
21035;DHT22;10676;50.848;3.272;2023-03-14T16:06:40;8.90;99.90
21035;DHT22;10676;50.848;3.272;2023-03-14T16:09:06;9.00;99.90
21035;DHT22;10676;50.848;3.272;2023-03-14T16:11:32;9.10;99.90
21035;DHT22;10676;50.848;3.272;2023-03-14T16:13:58;9.20;99.90
21035;DHT22;10676;50.848;3.272;2023-03-14T16:16:23;9.20;99.90
21035;DHT22;10676;50.848;3.272;2023-03-14T16:18:49;9.10;99.90
21035;DHT22;10676;50.848;3.272;2023-03-14T16:21:17;9.00;99.90
21035;DHT22;10676;50.848;3.272;2023-03-14T16:23:43;8.90;99.90
21035;DHT22;10676;50.848;3.272;2023-03-14T16:26:12;8.80;99.90
21035;DHT22;10676;50.848;3.272;2023-03-14T16:28:40;8.60;99.90
21035;DHT22;10676;50.848;3.272;2023-03-14T16:31:14;8.50;99.90
21035;DHT22;10676;50.848;3.272;2023-03-14T16:33:45;8.50;99.90
21035;DHT22;10676;50.848;3.272;2023-03-14T16:36:12;8.40;99.90
21035;DHT22;10676;50.848;3.272;2023-03-14T16:38:40;8.40;99.90
21035;DHT22;10676;50.848;3.272;2023-03-14T16:41:13;8.40;99.90
21035;DHT22;10676;50.848;3.272;2023-03-14T16:43:39;8.30;99.90
21035;DHT22;10676;50.848;3.272;2023-03-14T16:46:07;8.30;99.90
21035;DHT22;10676;50.848;3.272;2023-03-14T16:48:35;8.20;99.90
21035;DHT22;10676;50.848;3.272;2023-03-14T16:51:00;8.10;99.90
21035;DHT22;10676;50.848;3.272;2023-03-14T16:53:27;8.00;99.90
21035;DHT22;10676;50.848;3.272;2023-03-14T16:55:54;8.00;99.90